createdAt,value
2022-10-11T00:03:48.820Z,99043.16
2022-10-11T00:08:50.692Z,99042.38
2022-10-11T00:13:52.328Z,99046.78
2022-10-11T00:18:54.011Z,99042.27
2022-10-11T00:23:55.773Z,99047.13
2022-10-11T00:28:57.478Z,99044.66
2022-10-11T00:33:59.849Z,99043.04
2022-10-11T00:39:02.009Z,99042.95
2022-10-11T00:44:22.824Z,99043.65
2022-10-11T00:49:39.607Z,99041.99
2022-10-11T00:54:45.709Z,99038.52
2022-10-11T00:59:54.058Z,99038.91
2022-10-11T01:05:17.835Z,99040.55
2022-10-11T01:10:17.573Z,99042.08
2022-10-11T01:15:38.219Z,99045.05
2022-10-11T01:20:39.792Z,99042.68
2022-10-11T01:25:56.926Z,99046.56
2022-10-11T01:31:08.549Z,99048.71
2022-10-11T01:36:45.757Z,99047.67
2022-10-11T01:41:52.563Z,99043.14
2022-10-11T01:46:54.584Z,99045.77
2022-10-11T01:52:03.464Z,99048.96
2022-10-11T01:57:23.150Z,99050.29
2022-10-11T02:02:24.783Z,99050.02
2022-10-11T02:07:49.444Z,99052.27
2022-10-11T02:13:03.497Z,99050.33
2022-10-11T02:18:13.267Z,99055.57
2022-10-11T02:23:20.669Z,99054.46
2022-10-11T02:28:28.983Z,99053.77
2022-10-11T02:33:40.204Z,99054.59
2022-10-11T02:38:50.649Z,99055.66
2022-10-11T02:44:03.365Z,99057.35
2022-10-11T02:49:07.436Z,99057.64
2022-10-11T02:54:09.258Z,99061.92
2022-10-11T02:59:11.037Z,99068.48
2022-10-11T03:04:12.725Z,99070.45
2022-10-11T03:09:14.408Z,99072.91
2022-10-11T03:14:16.071Z,99079.76
2022-10-11T03:19:19.419Z,99086.30
2022-10-11T03:24:21.371Z,99095.30
2022-10-11T03:29:23.080Z,99096.80
2022-10-11T03:34:24.960Z,99095.23
2022-10-11T03:39:26.672Z,99101.34
2022-10-11T03:44:28.401Z,99107.91
2022-10-11T03:49:30.219Z,99116.33
2022-10-11T03:54:31.894Z,99117.63
2022-10-11T03:59:33.546Z,99113.84
2022-10-11T04:04:35.250Z,99107.89
2022-10-11T04:09:37.040Z,99112.36
2022-10-11T04:14:38.716Z,99111.19
2022-10-11T04:19:40.426Z,99113.61
2022-10-11T04:24:42.227Z,99118.30
2022-10-11T04:29:43.892Z,99119.64
2022-10-11T04:34:45.655Z,99113.05
2022-10-11T04:39:47.419Z,99117.45
2022-10-11T04:44:49.182Z,99122.41
2022-10-11T04:49:50.871Z,99123.62
2022-10-11T04:54:52.756Z,99132.23
2022-10-11T04:59:54.417Z,99139.73
2022-10-11T05:04:56.326Z,99140.23
2022-10-11T05:09:58.181Z,99147.16
2022-10-11T05:14:59.945Z,99161.24
2022-10-11T05:20:01.694Z,99169.23
2022-10-11T05:25:03.629Z,99174.89
2022-10-11T05:30:05.863Z,99185.59
2022-10-11T05:35:08.072Z,99194.30
2022-10-11T05:40:11.114Z,99206.97
2022-10-11T05:45:12.808Z,99202.49
2022-10-11T05:50:14.527Z,99214.48
2022-10-11T05:55:16.257Z,99217.38
2022-10-11T06:00:18.012Z,99222.96
2022-10-11T06:05:19.738Z,99226.66
2022-10-11T06:10:21.417Z,99233.14
2022-10-11T06:15:23.418Z,99242.90
2022-10-11T06:20:27.044Z,99247.63
2022-10-11T06:25:28.898Z,99256.59
2022-10-11T06:30:30.623Z,99256.59
2022-10-11T06:35:32.306Z,99261.58
2022-10-11T06:40:34.061Z,99271.11
2022-10-11T06:45:35.781Z,99276.34
2022-10-11T06:50:58.504Z,99291.40
2022-10-11T06:56:09.944Z,99294.02
2022-10-11T07:01:16.688Z,99300.94
2022-10-11T07:06:21.794Z,99308.19
2022-10-11T07:11:26.968Z,99317.57
2022-10-11T07:16:29.038Z,99319.88
2022-10-11T07:21:31.940Z,99331.02
2022-10-11T07:26:38.915Z,99330.25
2022-10-11T07:31:42.603Z,99340.55
2022-10-11T07:36:44.300Z,99351.23
2022-10-11T07:41:46.233Z,99359.67
2022-10-11T07:46:48.045Z,99364.89
2022-10-11T07:51:50.159Z,99373.84
2022-10-11T07:56:51.811Z,99375.27
2022-10-11T08:01:53.481Z,99383.60
2022-10-11T08:06:55.184Z,99389.27
2022-10-11T08:11:56.911Z,99393.02
2022-10-11T08:16:58.948Z,99395.66
2022-10-11T08:22:00.709Z,99400.72
2022-10-11T08:27:02.437Z,99403.48
2022-10-11T08:32:04.269Z,99410.07
2022-10-11T08:37:06.191Z,99416.65
2022-10-11T08:42:22.366Z,99419.67
2022-10-11T08:47:32.887Z,99422.33
2022-10-11T08:52:37.670Z,99428.30
2022-10-11T08:57:40.904Z,99432.58
2022-10-11T09:03:07.392Z,99426.45
2022-10-11T09:08:48.001Z,99426.29
2022-10-11T09:14:00.921Z,99432.27
2022-10-11T09:19:30.420Z,99434.93
2022-10-11T09:25:12.121Z,99439.91
2022-10-11T09:30:17.676Z,99442.70
2022-10-11T09:35:21.826Z,99442.61
2022-10-11T09:40:45.077Z,99449.70
2022-10-11T09:45:49.432Z,99452.27
2022-10-11T09:50:54.637Z,99450.27
2022-10-11T09:56:04.024Z,99454.00
2022-10-11T10:01:11.643Z,99457.91
2022-10-11T10:06:24.853Z,99460.96
2022-10-11T10:11:36.922Z,99464.92
2022-10-11T10:16:38.649Z,99465.03
2022-10-11T10:21:46.772Z,99468.11
2022-10-11T10:27:20.997Z,99470.77
2022-10-11T10:32:28.256Z,99471.17
2022-10-11T10:37:36.368Z,99473.58
2022-10-11T10:42:38.097Z,99475.48
2022-10-11T10:47:58.210Z,99475.56
2022-10-11T10:53:23.989Z,99474.91
2022-10-11T10:58:52.462Z,99482.55
2022-10-11T11:04:08.061Z,99485.11
2022-10-11T11:09:19.184Z,99484.78
2022-10-11T11:15:02.519Z,99478.81
2022-10-11T11:20:24.823Z,99478.95
2022-10-11T11:25:35.444Z,99473.73
2022-10-11T11:30:45.972Z,99476.16
2022-10-11T11:35:52.838Z,99472.51
2022-10-11T11:40:58.845Z,99472.05
2022-10-11T11:46:09.611Z,99473.04
2022-10-11T11:51:29.005Z,99474.48
2022-10-11T11:57:05.257Z,99476.08
2022-10-11T12:02:28.083Z,99476.84
2022-10-11T12:07:30.189Z,99474.29
2022-10-11T12:12:38.069Z,99471.87
2022-10-11T12:17:56.040Z,99470.85
2022-10-11T12:23:03.514Z,99475.98
2022-10-11T12:28:43.156Z,99468.80
2022-10-11T12:33:45.246Z,99471.85
2022-10-11T12:38:46.971Z,99471.11
2022-10-11T12:43:48.636Z,99469.64
2022-10-11T12:49:05.562Z,99470.58
2022-10-11T12:54:36.875Z,99468.91
2022-10-11T12:59:44.676Z,99467.98
2022-10-11T13:04:46.425Z,99470.55
2022-10-11T13:09:49.184Z,99475.30
2022-10-11T13:15:04.009Z,99473.95
2022-10-11T13:20:23.866Z,99477.50
2022-10-11T13:25:27.112Z,99477.70
2022-10-11T13:30:32.520Z,99480.41
2022-10-11T13:35:36.569Z,99474.69
2022-10-11T13:40:38.711Z,99472.90
2022-10-11T13:45:41.435Z,99475.54
2022-10-11T13:50:51.109Z,99473.58
2022-10-11T13:55:56.066Z,99477.91
2022-10-11T14:00:57.723Z,99480.89
2022-10-11T14:06:00.555Z,99488.22
2022-10-11T14:11:06.293Z,99486.34
2022-10-11T14:16:27.666Z,99492.02
2022-10-11T14:22:00.248Z,99491.16
2022-10-11T14:27:05.491Z,99487.46
2022-10-11T14:32:11.065Z,99490.33
2022-10-11T14:37:15.172Z,99489.14
2022-10-11T14:42:17.601Z,99489.16
2022-10-11T14:47:19.514Z,99490.66
2022-10-11T14:52:21.166Z,99493.08
2022-10-11T14:57:22.816Z,99492.29
2022-10-11T15:02:24.471Z,99493.80
2022-10-11T15:07:26.151Z,99499.52
2022-10-11T15:12:27.793Z,99498.27
2022-10-11T15:17:29.507Z,99498.13
2022-10-11T15:22:31.207Z,99503.21
2022-10-11T15:27:32.865Z,99500.73
2022-10-11T15:32:34.541Z,99507.94
2022-10-11T15:37:37.423Z,99513.18
2022-10-11T15:42:39.493Z,99515.85
2022-10-11T15:47:41.387Z,99519.70
2022-10-11T15:52:43.070Z,99525.83
2022-10-11T15:57:44.773Z,99525.39
2022-10-11T16:02:46.500Z,99530.80
2022-10-11T16:07:48.595Z,99535.74
2022-10-11T16:12:50.376Z,99543.55
2022-10-11T16:17:52.115Z,99551.03
2022-10-11T16:22:54.749Z,99551.51
2022-10-11T16:27:56.455Z,99557.43
2022-10-11T16:32:58.663Z,99560.75
2022-10-11T16:38:01.417Z,99562.05
2022-10-11T16:43:07.411Z,99563.42
2022-10-11T16:48:09.775Z,99566.16
2022-10-11T16:53:11.503Z,99568.91
2022-10-11T16:58:13.277Z,99574.89
2022-10-11T17:03:15.044Z,99572.80
2022-10-11T17:08:16.919Z,99580.20
2022-10-11T17:13:18.661Z,99584.64
2022-10-11T17:18:20.332Z,99585.92
2022-10-11T17:23:21.965Z,99588.55
2022-10-11T17:28:23.937Z,99586.06
2022-10-11T17:33:27.332Z,99592.52
2022-10-11T17:38:29.058Z,99590.37
2022-10-11T17:43:31.925Z,99593.64
2022-10-11T17:48:36.734Z,99591.39
2022-10-11T17:53:38.932Z,99592.89
2022-10-11T17:58:40.684Z,99591.26
2022-10-11T18:03:43.448Z,99591.85
2022-10-11T18:08:45.123Z,99595.15
2022-10-11T18:13:51.847Z,99599.13
2022-10-11T18:18:54.870Z,99599.25
2022-10-11T18:23:59.780Z,99604.23
2022-10-11T18:29:01.491Z,99599.36
2022-10-11T18:34:05.096Z,99592.85
2022-10-11T18:39:09.476Z,99589.91
2022-10-11T18:44:14.183Z,99593.89
2022-10-11T18:49:15.963Z,99600.48
2022-10-11T18:54:21.132Z,99599.94
2022-10-11T18:59:23.310Z,99599.77
2022-10-11T19:04:25.097Z,99604.83
2022-10-11T19:09:28.467Z,99602.48
2022-10-11T19:14:30.461Z,99601.92
2022-10-11T19:19:33.358Z,99605.80
2022-10-11T19:24:35.187Z,99612.11
2022-10-11T19:29:37.918Z,99613.29
2022-10-11T19:34:39.621Z,99614.30
2022-10-11T19:39:41.395Z,99615.27
2022-10-11T19:44:43.080Z,99623.89
2022-10-11T19:49:44.792Z,99624.95
2022-10-11T19:54:46.516Z,99626.55
2022-10-11T19:59:48.217Z,99631.27
2022-10-11T20:04:52.810Z,99628.58
2022-10-11T20:09:54.952Z,99628.75
2022-10-11T20:14:56.625Z,99625.85
2022-10-11T20:19:58.303Z,99628.46
2022-10-11T20:25:00.108Z,99628.45
2022-10-11T20:30:01.924Z,99626.94
2022-10-11T20:35:03.895Z,99629.17
2022-10-11T20:40:06.246Z,99630.21
2022-10-11T20:45:08.282Z,99632.05
2022-10-11T20:50:09.924Z,99633.80
2022-10-11T20:55:11.608Z,99632.49
2022-10-11T21:00:13.911Z,99628.78
2022-10-11T21:05:15.635Z,99630.13
2022-10-11T21:10:17.443Z,99632.77
2022-10-11T21:15:19.152Z,99633.08
2022-10-11T21:20:20.864Z,99634.55
2022-10-11T21:25:22.627Z,99637.25
2022-10-11T21:30:24.263Z,99636.60
2022-10-11T21:35:30.362Z,99639.31
2022-10-11T21:40:31.998Z,99635.40
2022-10-11T21:45:37.339Z,99632.91
2022-10-11T21:50:39.010Z,99635.21
2022-10-11T21:55:40.750Z,99638.20
2022-10-11T22:00:42.333Z,99637.73
2022-10-11T22:05:47.455Z,99633.39
2022-10-11T22:10:57.620Z,99634.39
2022-10-11T22:16:03.687Z,99626.13
2022-10-11T22:21:12.026Z,99624.30
2022-10-11T22:26:20.325Z,99624.91
2022-10-11T22:31:22.371Z,99630.11
2022-10-11T22:36:25.077Z,99632.71
2022-10-11T22:41:26.828Z,99631.21
2022-10-11T22:46:28.721Z,99635.84
2022-10-11T22:51:30.490Z,99630.88
2022-10-11T22:56:32.195Z,99631.57
2022-10-11T23:01:33.916Z,99634.30
2022-10-11T23:06:35.595Z,99631.29
2022-10-11T23:11:41.916Z,99630.27
2022-10-11T23:16:46.814Z,99637.06
2022-10-11T23:21:48.565Z,99638.98
2022-10-11T23:26:50.251Z,99630.40
2022-10-11T23:31:51.969Z,99633.02
2022-10-11T23:36:53.625Z,99635.39
2022-10-11T23:41:55.503Z,99641.30
2022-10-11T23:46:57.292Z,99641.69
2022-10-11T23:51:59.050Z,99642.50
2022-10-11T23:57:00.770Z,99643.30
